Huffton, South Dakota
Current Conditions -  °F | °C
As of 9:53 PM on Wednesday 28 Jan 2015 (Local Time) from KABR Reporting Station
Overcast Overcast  
Wind Chill: 22°   Ceiling: 2300
Heat Index: 33°   Visibility: 10mi
Dew Point: 28°   Wind: 18mph
Humidity: 82%   Direction: 330°NNW
Pressure: 30.09"   Gusts: NA
Location:  45.6648°N, 98.0615°W
Report Text: KABR 290353Z AUTO 33016KT 10SM BKN023 OVC032 01/M02 A3009 RMK AO2 PK WND 33030/0330 SLP204 T00061022
Loading
Personal Weather Stations






























Interactive Weather Map New forecast layout! Learn more

10-Day Weather Forecast

Advertisements
Track Severe Weather on mobile